Time;durP1;ratioP1;P1;durP2;ratioP2;P2;SDS_P1;SDS_P2;PMS_P1;PMS_P2;Temp;Humidity;BMP_temperature;BMP_pressure;BME280_temperature;BME280_humidity;BME280_pressure;Samples;Min_cycle;Max_cycle;Signal;HPM_P1;HPM_P2
2021/04/12 00:00:45;;;;;;;4.17;2.80;;;;;;;9.33;100.00;96079.50;5059987;28;20204;-71
2021/04/12 00:03:17;;;;;;;4.13;2.97;;;;;;;9.37;100.00;96079.00;5060340;28;21179;-69
2021/04/12 00:05:48;;;;;;;4.23;3.10;;;;;;;9.21;100.00;96076.47;5059077;28;21231;-70
2021/04/12 00:08:20;;;;;;;4.00;2.87;;;;;;;9.29;100.00;96080.84;5059926;28;20228;-71
2021/04/12 00:10:54;;;;;;;4.07;2.70;;;;;;;9.23;100.00;96081.56;5060657;28;20215;-70
2021/04/12 00:13:27;;;;;;;5.10;3.47;;;;;;;9.12;100.00;96084.56;5059919;28;20212;-68
2021/04/12 00:15:57;;;;;;;5.17;3.50;;;;;;;9.00;100.00;96080.69;5058919;28;20225;-70
2021/04/12 00:18:31;;;;;;;5.80;3.90;;;;;;;8.85;100.00;96074.50;5060754;28;20269;-71
2021/04/12 00:20:59;;;;;;;6.47;3.93;;;;;;;8.96;100.00;96070.69;5060160;28;20942;-70
2021/04/12 00:23:34;;;;;;;6.73;3.67;;;;;;;9.08;100.00;96078.81;5059247;28;20254;-68
2021/04/12 00:26:08;;;;;;;5.67;3.53;;;;;;;8.99;100.00;96081.69;5059038;28;20280;-70
2021/04/12 00:28:39;;;;;;;6.57;4.20;;;;;;;8.96;100.00;96074.16;5059542;28;20230;-71
2021/04/12 00:31:13;;;;;;;6.47;3.87;;;;;;;9.02;100.00;96072.63;5057937;28;20216;-70
2021/04/12 00:33:46;;;;;;;5.40;3.50;;;;;;;8.96;100.00;96081.19;5059636;28;20196;-70
2021/04/12 00:36:21;;;;;;;6.40;3.77;;;;;;;8.96;100.00;96081.19;5059056;28;20225;-69
2021/04/12 00:38:56;;;;;;;6.57;4.00;;;;;;;8.95;100.00;96088.28;5059517;28;20196;-69
2021/04/12 00:41:48;;;;;;;6.00;3.80;;;;;;;8.93;100.00;96087.59;5059810;28;20208;-71
2021/04/12 00:44:23;;;;;;;5.43;3.73;;;;;;;8.81;100.00;96088.16;5038335;28;20233;-70
2021/04/12 00:47:02;;;;;;;4.50;3.00;;;;;;;8.49;100.00;96099.56;5057096;28;20215;-70
2021/04/12 00:49:57;;;;;;;5.00;3.33;;;;;;;8.33;100.00;96097.97;5059880;28;20246;-71
2021/04/12 00:52:43;;;;;;;4.90;3.37;;;;;;;8.35;100.00;96111.75;5059388;28;20270;-68
2021/04/12 00:55:33;;;;;;;3.97;2.60;;;;;;;8.37;100.00;96109.78;5058010;28;20909;-70
2021/04/12 00:58:12;;;;;;;3.10;2.30;;;;;;;8.34;100.00;96112.72;5059345;28;20201;-71
2021/04/12 01:00:41;;;;;;;4.00;2.63;;;;;;;8.34;100.00;96115.34;5059911;28;20219;-69
2021/04/12 01:03:30;;;;;;;3.77;2.43;;;;;;;8.28;100.00;96126.53;5058552;28;20208;-70
2021/04/12 01:06:07;;;;;;;3.87;2.80;;;;;;;8.18;100.00;96121.44;5058288;28;20275;-71
2021/04/12 01:09:11;;;;;;;4.13;2.63;;;;;;;8.06;100.00;96116.66;5058426;28;20220;-71
2021/04/12 01:12:11;;;;;;;3.60;2.50;;;;;;;8.03;100.00;96124.84;4972617;28;20213;-71
2021/04/12 01:15:13;;;;;;;3.20;2.20;;;;;;;8.07;100.00;96120.91;5059136;28;20196;-71
2021/04/12 01:17:58;;;;;;;2.80;2.00;;;;;;;7.89;100.00;96128.97;5054722;28;20206;-71
2021/04/12 01:21:02;;;;;;;3.60;2.20;;;;;;;7.98;100.00;96135.84;5058827;28;20716;-70
2021/04/12 01:23:55;;;;;;;2.00;1.30;;;;;;;8.06;100.00;96129.78;5059021;28;20269;-69
2021/04/12 01:26:54;;;;;;;4.03;2.00;;;;;;;8.12;100.00;96137.00;5057543;28;20220;-71
2021/04/12 01:30:01;;;;;;;3.30;2.03;;;;;;;8.07;100.00;96140.13;5058866;28;20232;-70
2021/04/12 01:33:11;;;;;;;3.40;2.20;;;;;;;7.96;100.00;96137.81;5057534;28;20210;-70
2021/04/12 01:35:41;;;;;;;5.03;2.50;;;;;;;7.98;100.00;96148.97;5057161;28;20224;-69
2021/04/12 01:38:27;;;;;;;4.37;2.67;;;;;;;8.02;100.00;96152.91;5058620;28;20204;-70
2021/04/12 01:41:08;;;;;;;4.30;2.63;;;;;;;7.90;100.00;96161.25;5057610;28;20214;-71
2021/04/12 01:43:46;;;;;;;3.70;2.43;;;;;;;7.88;100.00;96166.66;5058244;28;20200;-70
2021/04/12 01:46:19;;;;;;;4.67;2.57;;;;;;;7.79;100.00;96172.06;5057771;28;20234;-70
2021/04/12 01:48:56;;;;;;;4.23;2.63;;;;;;;7.62;100.00;96170.38;5057651;28;20228;-67
2021/04/12 01:51:35;;;;;;;4.90;3.20;;;;;;;7.68;100.00;96177.63;5057414;28;20212;-71
2021/04/12 01:54:29;;;;;;;3.77;1.70;;;;;;;7.42;100.00;96183.94;5058433;28;20212;-70
2021/04/12 01:57:18;;;;;;;3.93;2.67;;;;;;;7.32;100.00;96184.06;5056953;28;20258;-70
2021/04/12 02:00:04;;;;;;;3.83;2.50;;;;;;;7.31;100.00;96186.84;5057166;28;20201;-70
2021/04/12 02:02:40;;;;;;;3.53;1.90;;;;;;;7.18;100.00;96193.50;5037164;28;20693;-69
2021/04/12 02:05:16;;;;;;;2.33;1.33;;;;;;;7.07;100.00;96194.59;5054299;28;20211;-67
2021/04/12 02:08:05;;;;;;;3.53;1.90;;;;;;;7.13;100.00;96194.00;5057710;28;20743;-71
2021/04/12 02:10:45;;;;;;;3.77;2.17;;;;;;;7.08;100.00;96198.06;5057236;28;20207;-70
2021/04/12 02:13:28;;;;;;;3.53;1.87;;;;;;;7.17;100.00;96199.75;5058153;28;20204;-71
2021/04/12 02:16:07;;;;;;;4.03;2.23;;;;;;;7.07;100.00;96202.47;5056625;28;20228;-71
2021/04/12 02:18:50;;;;;;;3.20;2.00;;;;;;;7.02;100.00;96209.16;5057369;28;20193;-72
2021/04/12 02:21:25;;;;;;;3.10;1.70;;;;;;;6.79;100.00;96216.72;5057809;28;20208;-68
2021/04/12 02:24:04;;;;;;;2.93;1.87;;;;;;;6.80;100.00;96222.78;5056976;28;20226;-70
2021/04/12 02:26:43;;;;;;;2.80;1.63;;;;;;;6.66;100.00;96223.34;5056745;28;21339;-70
2021/04/12 02:29:30;;;;;;;1.80;0.97;;;;;;;6.41;100.00;96233.78;5057108;28;20224;-70
2021/04/12 02:32:09;;;;;;;1.40;0.90;;;;;;;6.35;100.00;96237.84;5054039;28;20207;-69
2021/04/12 02:34:43;;;;;;;2.53;0.80;;;;;;;6.31;100.00;96240.91;5057248;28;20189;-67
2021/04/12 02:37:25;;;;;;;2.00;1.23;;;;;;;6.36;100.00;96244.69;5057350;28;20224;-71
2021/04/12 02:40:01;;;;;;;1.40;1.07;;;;;;;6.19;100.00;96256.00;5057279;28;20196;-69
2021/04/12 02:42:43;;;;;;;2.00;1.30;;;;;;;6.01;100.00;96259.59;5057524;28;20262;-71
2021/04/12 02:45:27;;;;;;;1.23;0.70;;;;;;;6.03;100.00;96270.72;5057874;28;20254;-70
2021/04/12 02:48:02;;;;;;;0.40;0.40;;;;;;;5.67;100.00;96282.09;5056881;28;20208;-68
2021/04/12 02:50:49;;;;;;;0.40;0.40;;;;;;;5.44;100.00;96282.63;5056663;28;20208;-68
2021/04/12 02:53:31;;;;;;;0.40;0.40;;;;;;;5.39;100.00;96297.91;5013480;28;20208;-70
2021/04/12 02:56:17;;;;;;;0.40;0.40;;;;;;;5.12;100.00;96304.91;5055890;28;20229;-67
2021/04/12 02:59:11;;;;;;;1.57;0.40;;;;;;;4.92;100.00;96314.56;5056695;28;20196;-70
2021/04/12 03:02:05;;;;;;;0.80;0.60;;;;;;;4.75;100.00;96314.47;5056766;28;20226;-71
2021/04/12 03:04:50;;;;;;;0.70;0.60;;;;;;;4.66;100.00;96327.50;5056909;28;20780;-67
2021/04/12 03:07:35;;;;;;;0.63;0.60;;;;;;;4.53;100.00;96322.59;5056178;28;20271;-70
2021/04/12 03:10:17;;;;;;;0.40;0.40;;;;;;;4.39;100.00;96330.00;5056363;28;20228;-68
2021/04/12 03:13:15;;;;;;;1.00;0.80;;;;;;;4.43;100.00;96327.00;5056221;28;20207;-69
2021/04/12 03:15:55;;;;;;;0.80;0.70;;;;;;;4.38;100.00;96341.44;5055468;28;20216;-68
2021/04/12 03:19:05;;;;;;;0.73;0.70;;;;;;;4.31;100.00;96353.34;5057084;28;20208;-71
2021/04/12 03:22:04;;;;;;;0.70;0.70;;;;;;;4.22;100.00;96346.34;5056542;28;20682;-70
2021/04/12 03:24:36;;;;;;;0.80;0.70;;;;;;;4.07;100.00;96349.47;5056921;28;20204;-68
2021/04/12 03:27:32;;;;;;;1.40;0.93;;;;;;;4.04;100.00;96347.16;5055793;28;20781;-68
2021/04/12 03:30:16;;;;;;;0.83;0.60;;;;;;;3.92;100.00;96356.88;5053728;28;20220;-69
2021/04/12 03:32:57;;;;;;;1.43;1.07;;;;;;;3.91;100.00;96354.41;5054024;28;20208;-69
2021/04/12 03:35:37;;;;;;;1.03;0.80;;;;;;;3.90;100.00;96364.00;5056081;28;20239;-71
2021/04/12 03:38:24;;;;;;;0.73;0.50;;;;;;;3.85;100.00;96360.97;5056066;28;20214;-71
2021/04/12 03:41:08;;;;;;;0.97;0.70;;;;;;;3.65;100.00;96376.66;5055898;28;20273;-69
2021/04/12 03:43:57;;;;;;;1.37;1.00;;;;;;;3.47;100.00;96382.63;5056851;28;20200;-68
2021/04/12 03:46:34;;;;;;;0.90;0.80;;;;;;;3.59;100.00;96390.25;5055839;28;20243;-71
2021/04/12 03:49:29;;;;;;;1.10;0.83;;;;;;;3.62;100.00;96396.00;5056901;28;20227;-70
2021/04/12 03:52:38;;;;;;;0.93;0.87;;;;;;;3.71;100.00;96399.59;5056248;28;20608;-71
2021/04/12 03:55:20;;;;;;;1.13;0.80;;;;;;;3.67;100.00;96411.25;5055486;28;20203;-71
2021/04/12 03:58:10;;;;;;;0.60;0.60;;;;;;;3.65;100.00;96416.59;5056930;28;20211;-69
2021/04/12 04:00:46;;;;;;;1.30;1.00;;;;;;;3.74;100.00;96428.00;5056282;28;20219;-68
2021/04/12 04:03:28;;;;;;;0.70;0.70;;;;;;;3.63;100.00;96433.31;5056119;28;20203;-71
2021/04/12 04:06:20;;;;;;;2.90;0.93;;;;;;;3.47;100.00;96442.56;5055742;28;20224;-68
2021/04/12 04:09:22;;;;;;;1.17;0.83;;;;;;;3.59;100.00;96444.94;5052058;28;20713;-71
2021/04/12 04:11:59;;;;;;;1.50;0.90;;;;;;;3.64;100.00;96443.59;5056220;28;20207;-71
2021/04/12 04:14:43;;;;;;;1.13;0.90;;;;;;;3.49;100.00;96451.88;5055648;28;20200;-68
2021/04/12 04:17:24;;;;;;;0.70;0.70;;;;;;;3.41;100.00;96458.69;5055486;28;20223;-67
2021/04/12 04:20:09;;;;;;;0.83;0.73;;;;;;;3.44;100.00;96463.66;5055968;28;20268;-68
2021/04/12 04:22:54;;;;;;;1.07;0.80;;;;;;;3.39;100.00;96461.41;5058080;28;20212;-71
2021/04/12 04:25:57;;;;;;;1.30;0.90;;;;;;;3.24;100.00;96462.69;5058747;28;20234;-72
2021/04/12 04:29:10;;;;;;;1.30;0.90;;;;;;;3.19;100.00;96464.84;5028831;28;20227;-69
2021/04/12 04:32:01;;;;;;;1.77;0.97;;;;;;;3.09;100.00;96482.19;5056992;28;20238;-70
2021/04/12 04:34:32;;;;;;;1.10;1.00;;;;;;;3.13;100.00;96480.16;5059342;28;20208;-69
2021/04/12 04:37:35;;;;;;;1.07;0.83;;;;;;;3.03;100.00;96492.28;5059269;28;20298;-70
2021/04/12 04:40:18;;;;;;;1.00;0.87;;;;;;;3.11;100.00;96505.50;5059223;28;20577;-68
2021/04/12 04:42:55;;;;;;;1.10;0.90;;;;;;;3.01;100.00;96506.38;5059190;28;20208;-68
2021/04/12 04:45:34;;;;;;;0.93;0.90;;;;;;;3.01;100.00;96515.81;5058619;28;20228;-71
2021/04/12 04:48:31;;;;;;;1.00;0.90;;;;;;;2.94;100.00;96528.63;5059434;28;20326;-70
2021/04/12 04:51:34;;;;;;;1.30;1.03;;;;;;;2.82;100.00;96543.47;5058372;28;20207;-69
2021/04/12 04:54:36;;;;;;;1.00;0.90;;;;;;;2.85;100.00;96551.03;5059135;28;20223;-71
2021/04/12 04:57:14;;;;;;;1.87;1.30;;;;;;;2.87;100.00;96551.72;5058251;28;20227;-69
2021/04/12 04:59:56;;;;;;;1.80;1.40;;;;;;;2.75;100.00;96557.06;5059239;28;20207;-71
2021/04/12 05:02:33;;;;;;;2.70;1.30;;;;;;;2.68;100.00;96555.94;5059733;28;20211;-68
2021/04/12 05:05:29;;;;;;;2.00;1.30;;;;;;;2.80;100.00;96566.19;5058280;28;20214;-68
2021/04/12 05:08:22;;;;;;;2.40;1.50;;;;;;;2.95;100.00;96574.53;5059245;28;20254;-70
2021/04/12 05:11:04;;;;;;;1.77;1.00;;;;;;;2.78;100.00;96575.06;5058856;28;20212;-68
2021/04/12 05:13:52;;;;;;;2.97;1.63;;;;;;;2.71;100.00;96572.13;5059095;28;20581;-69
2021/04/12 05:16:37;;;;;;;3.10;2.00;;;;;;;2.79;100.00;96579.28;5058175;28;20240;-67
2021/04/12 05:19:23;;;;;;;2.23;1.63;;;;;;;2.76;100.00;96585.59;5058902;28;20583;-71
2021/04/12 05:22:08;;;;;;;3.10;1.70;;;;;;;2.93;100.00;96592.03;5058348;28;20203;-71
2021/04/12 05:24:55;;;;;;;3.23;1.70;;;;;;;2.87;100.00;96595.97;5058848;28;20218;-69
2021/04/12 05:27:47;;;;;;;3.00;1.43;;;;;;;2.89;100.00;96595.84;5057897;28;20314;-68
2021/04/12 05:30:27;;;;;;;5.77;2.17;;;;;;;2.90;100.00;96602.72;5058684;28;20228;-67
2021/04/12 05:33:04;;;;;;;2.83;1.67;;;;;;;2.85;100.00;96610.91;5055350;28;20250;-69
2021/04/12 05:35:48;;;;;;;3.60;2.10;;;;;;;3.02;100.00;96619.00;5057953;28;20223;-72
2021/04/12 05:38:37;;;;;;;4.93;2.30;;;;;;;2.99;100.00;96628.81;5058669;28;20215;-71
2021/04/12 05:41:44;;;;;;;3.90;2.40;;;;;;;2.95;100.00;96643.03;5058276;28;20204;-69
2021/04/12 05:44:35;;;;;;;5.13;2.50;;;;;;;3.09;100.00;96647.97;5058021;28;20208;-69
2021/04/12 05:47:15;;;;;;;5.13;3.20;;;;;;;3.11;100.00;96640.88;5057084;28;20223;-71
2021/04/12 05:50:04;;;;;;;5.60;3.17;;;;;;;3.12;100.00;96642.53;5057908;28;20230;-71
2021/04/12 05:52:44;;;;;;;4.90;2.97;;;;;;;3.03;100.00;96645.88;5057680;28;20200;-71
2021/04/12 05:55:26;;;;;;;5.83;3.20;;;;;;;3.06;100.00;96648.22;5057468;28;20207;-70
2021/04/12 05:58:05;;;;;;;5.90;3.67;;;;;;;2.98;100.00;96652.38;5058076;28;20230;-70
2021/04/12 06:00:39;;;;;;;5.17;3.10;;;;;;;2.95;100.00;96648.22;5057952;28;20200;-71
2021/04/12 06:03:17;;;;;;;7.80;3.93;;;;;;;3.03;100.00;96651.06;5058101;28;20227;-67
2021/04/12 06:06:07;;;;;;;4.73;3.10;;;;;;;3.27;100.00;96657.75;5056890;28;20407;-71
2021/04/12 06:08:44;;;;;;;5.80;3.57;;;;;;;3.24;100.00;96664.97;5058029;28;20261;-72
2021/04/12 06:11:30;;;;;;;5.17;3.13;;;;;;;3.29;100.00;96681.06;5057630;28;20212;-71
2021/04/12 06:14:34;;;;;;;7.00;3.40;;;;;;;3.40;100.00;96681.00;5058189;28;20614;-71
2021/04/12 06:17:45;;;;;;;5.83;3.50;;;;;;;3.26;100.00;96689.09;5056419;28;20301;-68
2021/04/12 06:20:38;;;;;;;6.63;3.43;;;;;;;3.40;100.00;96692.28;5011228;28;20751;-70
2021/04/12 06:23:36;;;;;;;5.33;2.67;;;;;;;3.32;100.00;96714.66;5057380;28;20200;-68
2021/04/12 06:26:41;;;;;;;6.60;3.90;;;;;;;3.53;100.00;96723.41;5053384;28;20227;-71
2021/04/12 06:29:32;;;;;;;6.73;3.87;;;;;;;3.35;100.00;96719.66;5050991;28;20224;-71
2021/04/12 06:32:31;;;;;;;6.00;3.70;;;;;;;3.14;100.00;96727.38;5052838;28;20204;-70
2021/04/12 06:35:27;;;;;;;7.13;3.70;;;;;;;3.30;100.00;96738.22;5057210;28;20208;-71
2021/04/12 06:38:22;;;;;;;6.93;4.03;;;;;;;3.27;100.00;96727.22;5003305;28;20209;-70
2021/04/12 06:41:22;;;;;;;4.67;2.50;;;;;;;3.15;100.00;96746.44;5057319;28;20675;-70
2021/04/12 06:44:25;;;;;;;5.20;3.40;;;;;;;3.14;100.00;96753.41;5035847;28;20201;-67
2021/04/12 06:47:08;;;;;;;6.67;4.10;;;;;;;3.19;100.00;96761.66;5056214;28;20252;-70
2021/04/12 06:50:10;;;;;;;7.07;3.60;;;;;;;3.26;100.00;96767.22;5057169;28;20220;-67
2021/04/12 06:53:12;;;;;;;6.77;4.10;;;;;;;3.33;100.00;96778.84;5023547;28;20207;-70
2021/04/12 06:56:21;;;;;;;5.60;3.47;;;;;;;3.24;100.00;96779.56;5017903;28;20215;-71
2021/04/12 06:59:19;;;;;;;8.03;3.53;;;;;;;3.10;100.00;96785.81;5055587;28;21271;-69
2021/04/12 07:02:08;;;;;;;6.13;3.30;;;;;;;3.09;100.00;96791.16;5056431;28;20665;-71
2021/04/12 07:05:08;;;;;;;5.93;3.17;;;;;;;3.03;100.00;96792.47;5054922;28;20205;-69
2021/04/12 07:08:08;;;;;;;6.23;3.63;;;;;;;3.02;100.00;96796.00;4993443;28;21283;-67
2021/04/12 07:11:10;;;;;;;5.43;3.20;;;;;;;3.20;100.00;96801.56;5055345;28;20216;-71
2021/04/12 07:13:53;;;;;;;6.03;3.73;;;;;;;3.15;100.00;96806.31;5056053;28;20204;-71
2021/04/12 07:16:53;;;;;;;7.30;4.00;;;;;;;3.41;100.00;96810.31;5056326;28;20683;-68
2021/04/12 07:20:00;;;;;;;5.97;3.20;;;;;;;3.41;100.00;96818.13;5052442;28;20584;-67
2021/04/12 07:22:52;;;;;;;8.17;3.73;;;;;;;3.38;100.00;96828.78;5037537;28;20200;-67
2021/04/12 07:25:57;;;;;;;6.17;3.17;;;;;;;3.61;100.00;96835.66;5053962;28;20204;-70
2021/04/12 07:29:13;;;;;;;5.50;3.53;;;;;;;3.64;100.00;96837.06;5052839;28;20474;-68
2021/04/12 07:32:28;;;;;;;5.87;3.60;;;;;;;3.86;100.00;96833.59;5051138;28;20200;-70
2021/04/12 07:35:23;;;;;;;6.97;3.97;;;;;;;3.79;100.00;96841.06;5054554;28;20311;-68
2021/04/12 07:38:39;;;;;;;8.07;4.00;;;;;;;3.86;100.00;96842.22;5056411;28;20949;-71
2021/04/12 07:41:42;;;;;;;7.97;4.20;;;;;;;3.73;100.00;96846.75;4980242;28;20310;-70
2021/04/12 07:45:01;;;;;;;6.13;3.47;;;;;;;3.69;100.00;96855.75;5054953;28;20538;-68
2021/04/12 07:48:14;;;;;;;9.27;4.53;;;;;;;3.84;100.00;96862.34;5056321;28;20208;-71
2021/04/12 07:51:29;;;;;;;8.47;4.47;;;;;;;3.78;100.00;96873.28;5055252;28;20546;-69
2021/04/12 07:54:31;;;;;;;6.90;4.10;;;;;;;3.59;100.00;96879.22;5055845;28;20211;-72
2021/04/12 07:57:29;;;;;;;6.53;4.40;;;;;;;3.72;100.00;96883.38;5057978;28;20244;-69
2021/04/12 08:00:35;;;;;;;6.20;4.00;;;;;;;3.62;100.00;96883.25;5058660;28;20231;-68
2021/04/12 08:03:19;;;;;;;8.13;4.43;;;;;;;3.59;100.00;96889.63;5060232;28;20208;-69
2021/04/12 08:06:59;;;;;;;9.30;4.93;;;;;;;3.60;100.00;96901.72;5058607;28;20227;-71
2021/04/12 08:10:01;;;;;;;5.77;3.80;;;;;;;3.38;100.00;96902.53;4957490;28;20234;-70
2021/04/12 08:12:59;;;;;;;8.53;4.47;;;;;;;3.18;100.00;96905.84;4957789;28;20207;-70
2021/04/12 08:16:18;;;;;;;8.50;4.40;;;;;;;3.44;100.00;96917.72;5058576;28;20235;-70
2021/04/12 08:19:10;;;;;;;7.33;4.10;;;;;;;3.55;100.00;96915.09;5059703;28;20196;-71
2021/04/12 08:22:06;;;;;;;8.13;4.00;;;;;;;3.40;100.00;96920.66;5059050;28;20207;-68
2021/04/12 08:24:46;;;;;;;8.17;4.33;;;;;;;3.46;100.00;96926.22;5058907;28;20200;-68
2021/04/12 08:28:02;;;;;;;7.33;4.00;;;;;;;3.40;100.00;96920.66;5058959;28;20283;-70
2021/04/12 08:31:09;;;;;;;8.47;4.40;;;;;;;3.31;100.00;96934.38;5058315;28;20229;-71
2021/04/12 08:34:12;;;;;;;7.33;3.67;;;;;;;3.12;100.00;96934.13;5058449;28;20200;-70
2021/04/12 08:37:09;;;;;;;7.53;4.10;;;;;;;3.26;100.00;96933.91;5057885;28;20245;-71
2021/04/12 08:40:12;;;;;;;8.90;4.67;;;;;;;3.46;100.00;96948.84;5058582;28;20201;-69
2021/04/12 08:43:08;;;;;;;8.30;4.20;;;;;;;3.34;100.00;96949.78;5059120;28;20257;-70
2021/04/12 08:46:06;;;;;;;9.53;4.53;;;;;;;3.27;100.00;96953.78;5057905;28;20220;-71
2021/04/12 08:48:49;;;;;;;8.53;4.27;;;;;;;3.04;100.00;96965.09;5059475;28;21422;-68
2021/04/12 08:52:31;;;;;;;14.37;5.10;;;;;;;3.24;100.00;96967.06;5058699;28;20227;-67
2021/04/12 08:55:24;;;;;;;7.20;3.83;;;;;;;3.17;100.00;96968.44;5058551;28;20209;-71
2021/04/12 08:58:24;;;;;;;9.93;5.27;;;;;;;3.32;100.00;96972.50;5059347;28;20216;-70
2021/04/12 09:01:15;;;;;;;12.30;4.90;;;;;;;3.49;100.00;96970.28;5049904;28;20212;-71
2021/04/12 09:04:20;;;;;;;8.00;5.07;;;;;;;3.47;100.00;96969.56;5059541;28;20697;-71
2021/04/12 09:07:19;;;;;;;9.73;5.10;;;;;;;3.65;100.00;96968.16;5058287;28;20391;-69
2021/04/12 09:10:27;;;;;;;9.97;4.47;;;;;;;3.64;100.00;96976.94;5057510;28;20792;-70
2021/04/12 09:13:35;;;;;;;7.57;4.47;;;;;;;3.68;100.00;96967.94;4957119;28;20350;-71
2021/04/12 09:16:17;;;;;;;9.43;4.90;;;;;;;3.45;100.00;96983.66;5035697;28;20235;-71
2021/04/12 09:19:15;;;;;;;10.10;5.10;;;;;;;3.53;100.00;96981.31;5058634;28;20639;-68
2021/04/12 09:22:20;;;;;;;10.97;5.33;;;;;;;3.53;100.00;96989.13;5038196;28;20200;-71
2021/04/12 09:25:08;;;;;;;7.43;4.37;;;;;;;3.66;100.00;96988.06;5058322;28;20242;-71
2021/04/12 09:27:51;;;;;;;8.47;5.03;;;;;;;3.61;100.00;96991.97;5058460;28;20204;-70
2021/04/12 09:31:11;;;;;;;10.50;5.23;;;;;;;3.61;100.00;96999.81;5058712;28;20231;-71
2021/04/12 09:34:33;;;;;;;8.90;4.20;;;;;;;3.66;100.00;97001.09;4956859;28;20214;-71
2021/04/12 09:37:47;;;;;;;8.30;4.50;;;;;;;3.73;100.00;97003.13;4975739;28;20709;-71
2021/04/12 09:41:02;;;;;;;6.63;3.80;;;;;;;3.51;100.00;97007.47;5058154;28;20215;-69
2021/04/12 09:44:14;;;;;;;8.10;3.13;;;;;;;3.39;100.00;97005.78;5014671;28;20703;-67
2021/04/12 09:47:39;;;;;;;9.53;4.53;;;;;;;3.59;100.00;97009.50;5057334;28;20231;-71
2021/04/12 09:50:41;;;;;;;3.83;2.50;;;;;;;3.67;100.00;97018.41;5057912;28;20694;-70
2021/04/12 09:53:43;;;;;;;7.17;4.53;;;;;;;3.96;100.00;97014.38;5058453;28;21031;-68
2021/04/12 09:56:38;;;;;;;7.50;3.60;;;;;;;3.89;100.00;97024.44;5012739;28;20343;-68
2021/04/12 09:59:31;;;;;;;10.10;4.23;;;;;;;3.91;100.00;97026.97;5058080;28;20200;-69
2021/04/12 10:02:27;;;;;;;6.73;4.20;;;;;;;4.10;100.00;97024.56;5051353;28;20232;-70
2021/04/12 10:05:05;;;;;;;6.80;4.30;;;;;;;4.32;100.00;97022.78;5013330;28;20208;-70
2021/04/12 10:07:59;;;;;;;6.37;3.53;;;;;;;4.08;100.00;97035.13;5058272;28;20207;-71
2021/04/12 10:10:28;;;;;;;7.17;3.97;;;;;;;4.28;100.00;97031.81;5058293;28;20705;-71
2021/04/12 10:13:09;;;;;;;8.70;3.70;;;;;;;4.44;100.00;97019.22;5057801;28;20696;-71
2021/04/12 10:15:55;;;;;;;6.43;3.20;;;;;;;4.54;100.00;97027.97;5057818;28;20229;-70
2021/04/12 10:18:34;;;;;;;7.90;3.73;;;;;;;4.55;100.00;97027.03;5058075;28;20216;-69
2021/04/12 10:21:15;;;;;;;9.50;4.10;;;;;;;4.65;100.00;97030.56;5056718;28;20254;-71
2021/04/12 10:23:43;;;;;;;7.73;4.30;;;;;;;4.91;100.00;97036.19;5058719;28;20204;-70
2021/04/12 10:26:15;;;;;;;10.70;4.17;;;;;;;4.95;100.00;97037.59;5057059;28;20263;-71
2021/04/12 10:28:46;;;;;;;8.93;4.17;;;;;;;5.02;99.39;97041.38;5057094;28;20609;-71
2021/04/12 10:31:26;;;;;;;7.27;4.50;;;;;;;5.03;100.00;97048.25;5055304;28;20205;-67
2021/04/12 10:34:05;;;;;;;10.67;4.80;;;;;;;4.81;100.00;97044.06;5057064;28;20196;-69
2021/04/12 10:36:37;;;;;;;10.47;5.00;;;;;;;4.82;100.00;97049.16;5056795;28;20220;-67
2021/04/12 10:39:09;;;;;;;7.37;3.57;;;;;;;4.70;100.00;97051.91;5057045;28;20208;-71
2021/04/12 10:41:44;;;;;;;9.73;5.00;;;;;;;4.77;100.00;97050.47;5057181;28;20216;-70
2021/04/12 10:44:14;;;;;;;11.53;5.00;;;;;;;4.68;100.00;97051.22;5056566;28;20200;-68
2021/04/12 10:46:52;;;;;;;6.73;4.30;;;;;;;4.49;100.00;97051.00;5054336;28;20230;-67
2021/04/12 10:49:25;;;;;;;9.80;5.13;;;;;;;4.27;100.00;97056.22;5056530;28;20227;-71
2021/04/12 10:51:57;;;;;;;13.23;6.07;;;;;;;4.27;100.00;97064.06;5056627;28;20265;-68
2021/04/12 10:54:41;;;;;;;13.57;6.87;;;;;;;4.25;100.00;97052.91;5056897;28;20584;-70
2021/04/12 10:57:14;;;;;;;9.83;5.73;;;;;;;4.26;100.00;97054.56;5056115;28;20231;-70
2021/04/12 10:59:54;;;;;;;12.43;5.33;;;;;;;4.29;100.00;97056.97;5056876;28;20200;-70
2021/04/12 11:02:24;;;;;;;11.13;5.57;;;;;;;4.39;100.00;97050.91;5056822;28;20219;-71
2021/04/12 11:04:55;;;;;;;9.20;5.50;;;;;;;4.32;100.00;97059.31;5056808;28;20227;-71
2021/04/12 11:07:28;;;;;;;11.23;6.17;;;;;;;4.53;100.00;97057.63;5056403;28;20224;-69
2021/04/12 11:10:02;;;;;;;13.07;6.30;;;;;;;4.44;100.00;97058.34;5055908;28;20220;-70
2021/04/12 11:12:57;;;;;;;10.30;6.00;;;;;;;4.33;100.00;97063.59;5057125;28;20893;-67
2021/04/12 11:15:37;;;;;;;10.50;6.30;;;;;;;4.46;100.00;97053.84;5055768;28;20233;-70
2021/04/12 11:18:23;;;;;;;9.10;5.77;;;;;;;4.64;100.00;97055.84;5057074;28;20238;-71
2021/04/12 11:20:55;;;;;;;9.07;5.67;;;;;;;4.83;100.00;97054.25;5056501;28;20209;-70
2021/04/12 11:23:31;;;;;;;12.20;6.13;;;;;;;4.75;100.00;97055.81;5056868;28;20215;-69
2021/04/12 11:26:03;;;;;;;10.70;6.63;;;;;;;4.87;100.00;97063.50;5056145;28;20700;-68
2021/04/12 11:28:37;;;;;;;11.87;6.27;;;;;;;4.76;100.00;97060.09;5056896;28;20265;-70
2021/04/12 11:31:30;;;;;;;9.33;6.07;;;;;;;4.66;100.00;97071.38;5055189;28;20224;-67
2021/04/12 11:34:04;;;;;;;16.53;8.83;;;;;;;4.64;100.00;97070.69;5056987;28;20204;-71
2021/04/12 11:36:47;;;;;;;10.50;5.57;;;;;;;4.59;100.00;97070.19;5055560;28;20256;-70
2021/04/12 11:39:18;;;;;;;8.13;3.60;;;;;;;4.24;100.00;97072.94;5056390;28;20215;-69
2021/04/12 11:41:51;;;;;;;12.43;4.83;;;;;;;4.23;100.00;97075.69;5053115;28;20210;-69
2021/04/12 11:44:21;;;;;;;11.30;6.40;;;;;;;4.21;100.00;97080.19;5057191;28;20331;-67
2021/04/12 11:47:18;;;;;;;13.23;7.57;;;;;;;4.34;100.00;97079.13;5055437;28;20561;-70
2021/04/12 11:50:08;;;;;;;15.93;7.33;;;;;;;4.25;100.00;97084.22;5056166;28;20224;-69
2021/04/12 11:52:44;;;;;;;10.60;5.80;;;;;;;4.30;100.00;97084.69;5055932;28;20196;-70
2021/04/12 11:55:16;;;;;;;10.07;4.87;;;;;;;4.27;100.00;97090.97;5055557;28;20262;-71
2021/04/12 11:57:47;;;;;;;12.77;6.50;;;;;;;4.21;100.00;97088.00;5056542;28;21166;-67
2021/04/12 12:00:17;;;;;;;13.37;7.60;;;;;;;4.28;100.00;97100.47;5056736;28;20205;-70
2021/04/12 12:02:54;;;;;;;13.10;7.37;;;;;;;4.34;100.00;97096.53;5056231;28;20261;-69
2021/04/12 12:05:26;;;;;;;14.10;8.00;;;;;;;4.28;100.00;97100.47;5055511;28;20204;-70
2021/04/12 12:07:55;;;;;;;14.93;8.07;;;;;;;4.21;100.00;97093.22;5056380;28;20666;-70
2021/04/12 12:10:48;;;;;;;13.73;8.03;;;;;;;4.17;100.00;97104.84;5053200;28;20228;-70
2021/04/12 12:13:34;;;;;;;19.63;9.27;;;;;;;4.35;100.00;97100.81;5056420;28;20212;-70
2021/04/12 12:16:13;;;;;;;17.90;9.87;;;;;;;4.30;100.00;97097.72;5055357;28;20224;-70
2021/04/12 12:18:44;;;;;;;15.10;8.73;;;;;;;4.31;100.00;97104.63;5056607;28;20265;-66
2021/04/12 12:21:16;;;;;;;17.70;9.83;;;;;;;4.42;100.00;97105.44;5056059;28;20205;-71
2021/04/12 12:23:54;;;;;;;19.13;10.13;;;;;;;4.41;100.00;97109.00;5056212;28;20266;-67
2021/04/12 12:26:28;;;;;;;19.50;9.73;;;;;;;4.57;100.00;97112.09;5055644;28;20220;-66
2021/04/12 12:29:08;;;;;;;16.80;9.43;;;;;;;4.37;100.00;97109.38;5055769;28;20210;-69
2021/04/12 12:31:40;;;;;;;18.00;10.13;;;;;;;4.64;100.00;97115.06;5055958;28;20200;-70
2021/04/12 12:34:27;;;;;;;18.60;10.20;;;;;;;4.52;100.00;97113.38;5056014;28;20204;-70
2021/04/12 12:36:58;;;;;;;18.97;10.17;;;;;;;4.50;100.00;97112.69;5055034;28;20311;-70
2021/04/12 12:39:36;;;;;;;23.20;11.63;;;;;;;4.68;100.00;97114.66;5056866;28;20211;-70
2021/04/12 12:42:07;;;;;;;22.80;11.27;;;;;;;4.71;100.00;97116.22;5055670;28;20903;-69
2021/04/12 12:44:35;;;;;;;17.20;10.30;;;;;;;4.66;100.00;97123.56;5059034;28;20677;-71
2021/04/12 12:47:09;;;;;;;18.27;8.30;;;;;;;4.65;98.52;97121.94;5059380;28;20236;-70
2021/04/12 12:49:38;;;;;;;17.43;9.23;;;;;;;4.70;96.93;97117.16;5059397;28;20220;-67
2021/04/12 12:52:08;;;;;;;18.03;8.20;;;;;;;4.54;94.61;97124.53;5059317;28;20692;-68
2021/04/12 12:54:40;;;;;;;23.90;12.07;;;;;;;4.62;100.00;97120.41;5060075;28;20261;-70
2021/04/12 12:57:09;;;;;;;15.47;8.87;;;;;;;4.72;98.70;97120.50;5055706;28;20311;-69
2021/04/12 12:59:38;;;;;;;26.43;13.33;;;;;;;4.73;100.00;97116.94;5058681;28;20280;-69
2021/04/12 13:02:14;;;;;;;17.47;9.43;;;;;;;4.63;96.72;97122.03;5059415;28;20209;-68
2021/04/12 13:04:57;;;;;;;18.73;10.43;;;;;;;4.66;98.02;97121.81;5059247;28;20258;-69